Time;durP1;ratioP1;P1;durP2;ratioP2;P2;SDS_P1;SDS_P2;PMS_P1;PMS_P2;Temp;Humidity;BMP_temperature;BMP_pressure;BME280_temperature;BME280_humidity;BME280_pressure;Samples;Min_cycle;Max_cycle;Signal;HPM_P1;HPM_P2
2023/09/30 00:01:01;;;;;;;175.80;128.70;;;;;;;20.49;78.51;101671.56;5035604;28;20486;-77
2023/09/30 00:03:27;;;;;;;173.83;128.53;;;;;;;20.50;78.68;101678.59;5035577;28;20432;-77
2023/09/30 00:05:52;;;;;;;179.13;129.40;;;;;;;20.51;78.27;101682.13;5035661;28;20842;-77
2023/09/30 00:08:17;;;;;;;177.83;130.93;;;;;;;20.49;78.06;101691.97;5035216;28;20842;-78
2023/09/30 00:10:43;;;;;;;176.57;127.87;;;;;;;20.49;78.52;101700.78;5035548;28;20835;-76
2023/09/30 00:13:10;;;;;;;173.93;126.53;;;;;;;20.48;78.27;101709.66;5035417;28;20385;-74
2023/09/30 00:15:36;;;;;;;170.02;124.60;;;;;;;20.49;78.35;101705.25;5035627;28;20391;-76
2023/09/30 00:18:03;;;;;;;166.17;122.50;;;;;;;20.48;78.30;101714.13;5034271;28;20385;-76
2023/09/30 00:20:31;;;;;;;168.40;123.10;;;;;;;20.48;78.18;101719.44;5050541;28;20389;-76
2023/09/30 00:22:59;;;;;;;166.85;119.72;;;;;;;20.48;78.22;101730.06;5035277;28;20492;-75
2023/09/30 00:25:27;;;;;;;159.13;117.70;;;;;;;20.47;78.38;101726.53;5035181;28;20377;-74
2023/09/30 00:27:53;;;;;;;159.00;117.43;;;;;;;20.49;78.15;101734.47;5034657;28;20473;-76
2023/09/30 00:30:18;;;;;;;160.75;118.50;;;;;;;20.47;78.30;101738.97;5035108;28;20875;-76
2023/09/30 00:32:46;;;;;;;151.27;112.13;;;;;;;20.46;78.34;101738.06;5052814;28;20381;-75
2023/09/30 00:35:12;;;;;;;148.02;109.85;;;;;;;20.45;78.30;101745.19;5051901;28;20451;-76
2023/09/30 00:37:38;;;;;;;151.00;110.23;;;;;;;20.47;78.13;101752.25;5042096;28;20409;-75
2023/09/30 00:40:07;;;;;;;148.07;109.50;;;;;;;20.44;77.56;101751.44;5050890;28;20397;-73
2023/09/30 00:42:32;;;;;;;148.90;107.95;;;;;;;20.45;78.18;101750.50;5056292;28;20405;-66
2023/09/30 00:45:00;;;;;;;143.37;105.17;;;;;;;20.46;78.04;101748.72;5059322;28;20357;-66
2023/09/30 00:47:28;;;;;;;137.13;101.88;;;;;;;20.45;77.80;101750.50;5075241;28;20373;-75
2023/09/30 00:49:53;;;;;;;139.88;103.47;;;;;;;20.45;78.01;101758.47;5056442;28;20393;-76
2023/09/30 00:52:19;;;;;;;133.83;98.50;;;;;;;20.45;77.71;101761.13;5049073;28;20676;-74
2023/09/30 00:54:46;;;;;;;133.60;99.93;;;;;;;20.44;77.99;101764.72;5056615;28;20443;-75
2023/09/30 00:57:14;;;;;;;131.40;96.88;;;;;;;20.47;77.97;101765.53;5050195;28;20381;-74
2023/09/30 00:59:39;;;;;;;127.17;93.07;;;;;;;20.45;77.51;101762.94;5034727;28;20485;-76
2023/09/30 01:02:06;;;;;;;122.47;92.03;;;;;;;20.44;77.97;101764.72;5033675;28;20691;-76
2023/09/30 01:04:31;;;;;;;122.85;91.13;;;;;;;20.44;77.94;101766.53;5050540;28;20464;-76
2023/09/30 01:06:59;;;;;;;119.23;88.07;;;;;;;20.43;77.49;101770.94;5051634;28;20416;-75
2023/09/30 01:09:25;;;;;;;121.18;91.32;;;;;;;20.45;78.23;101773.56;5036455;28;20384;-75
2023/09/30 01:11:51;;;;;;;117.22;86.38;;;;;;;20.43;77.98;101773.59;5034325;28;20382;-76
2023/09/30 01:14:25;;;;;;;112.20;82.70;;;;;;;20.42;77.72;101779.84;5034311;28;20374;-76
2023/09/30 01:16:50;;;;;;;114.33;84.00;;;;;;;20.42;78.07;101785.16;5034726;28;20381;-73
2023/09/30 01:19:18;;;;;;;108.57;79.37;;;;;;;20.43;77.81;101791.34;5039720;28;20734;-73
2023/09/30 01:21:48;;;;;;;105.53;77.18;;;;;;;20.42;77.50;101784.31;5034210;28;20377;-74
2023/09/30 01:24:14;;;;;;;104.28;75.55;;;;;;;20.43;77.83;101800.16;5049709;28;20409;-72
2023/09/30 01:26:45;;;;;;;103.60;76.10;;;;;;;20.43;77.70;101807.28;5050140;28;20481;-73
2023/09/30 01:29:14;;;;;;;97.63;71.23;;;;;;;20.42;77.33;101801.09;5034973;28;20416;-74
2023/09/30 01:31:40;;;;;;;94.25;68.88;;;;;;;20.41;77.65;101802.00;5033881;28;20434;-72
2023/09/30 01:34:05;;;;;;;90.50;66.37;;;;;;;20.42;77.19;101808.22;5034120;28;20447;-73
2023/09/30 01:36:31;;;;;;;93.80;68.67;;;;;;;20.42;77.52;101809.06;5049619;28;20382;-74
2023/09/30 01:38:56;;;;;;;91.17;65.97;;;;;;;20.42;77.69;101818.84;5033881;28;20726;-72
2023/09/30 01:41:22;;;;;;;88.07;63.88;;;;;;;20.42;77.51;101821.50;5034598;28;20396;-73
2023/09/30 01:43:48;;;;;;;81.63;59.13;;;;;;;20.41;76.69;101820.59;5033821;28;20374;-73
2023/09/30 01:46:16;;;;;;;83.30;60.70;;;;;;;20.42;76.99;101827.66;5049429;28;20385;-73
2023/09/30 01:48:41;;;;;;;80.95;59.13;;;;;;;20.40;76.98;101826.84;5032814;28;20882;-72
2023/09/30 01:51:06;;;;;;;77.57;58.05;;;;;;;20.40;76.88;101824.19;5049392;28;20385;-73
2023/09/30 01:53:32;;;;;;;78.97;56.13;;;;;;;20.40;76.97;101829.50;5033670;28;20373;-74
2023/09/30 01:56:00;;;;;;;73.97;54.33;;;;;;;20.41;76.80;101841.00;5033325;28;20385;-72
2023/09/30 01:58:25;;;;;;;73.30;54.05;;;;;;;20.41;76.74;101841.00;5036287;28;20373;-73
2023/09/30 02:00:56;;;;;;;71.10;52.43;;;;;;;20.42;76.82;101843.59;5055243;28;20404;-73
2023/09/30 02:03:21;;;;;;;70.60;51.03;;;;;;;20.40;76.63;101845.44;5045330;28;20419;-73
2023/09/30 02:05:49;;;;;;;65.80;48.10;;;;;;;20.40;76.86;101849.91;5039101;28;20385;-74
2023/09/30 02:08:18;;;;;;;66.68;49.42;;;;;;;20.40;76.62;101855.22;5039072;28;20730;-73
2023/09/30 02:10:43;;;;;;;65.05;46.95;;;;;;;20.40;76.68;101850.75;5033717;28;20409;-73
2023/09/30 02:13:09;;;;;;;59.27;44.23;;;;;;;20.38;76.39;101852.59;5033397;28;20447;-74
2023/09/30 02:15:35;;;;;;;62.43;43.37;;;;;;;20.39;76.23;101857.00;5049016;28;20447;-73
2023/09/30 02:18:01;;;;;;;58.17;41.97;;;;;;;20.40;76.34;101861.38;5033207;28;20381;-71
2023/09/30 02:20:30;;;;;;;59.63;42.40;;;;;;;20.39;76.41;101864.97;5033029;28;20404;-74
2023/09/30 02:22:58;;;;;;;57.72;41.80;;;;;;;20.37;76.45;101861.50;5033216;28;20389;-73
2023/09/30 02:25:24;;;;;;;55.05;40.47;;;;;;;20.38;76.22;101863.22;5033024;28;20378;-75
2023/09/30 02:27:52;;;;;;;53.20;37.25;;;;;;;20.38;75.96;101862.38;5048760;28;20377;-73
2023/09/30 02:30:17;;;;;;;50.47;36.70;;;;;;;20.37;76.28;101855.28;5032794;28;20392;-74
2023/09/30 02:32:45;;;;;;;45.73;34.20;;;;;;;20.36;76.09;101859.75;5033029;28;20377;-73
2023/09/30 02:35:11;;;;;;;48.97;35.87;;;;;;;20.37;76.28;101866.81;5033546;28;20389;-73
2023/09/30 02:37:40;;;;;;;47.10;34.73;;;;;;;20.35;76.32;101863.34;5033811;28;20396;-74
2023/09/30 02:40:09;;;;;;;46.08;32.75;;;;;;;20.35;75.95;101868.66;5032971;28;20405;-73
2023/09/30 02:42:40;;;;;;;49.90;34.00;;;;;;;20.37;76.17;101888.06;5047929;28;20365;-73
2023/09/30 02:45:07;;;;;;;41.53;30.42;;;;;;;20.35;75.78;101881.94;5048742;28;20376;-73
2023/09/30 02:47:33;;;;;;;41.20;29.58;;;;;;;20.37;75.73;101888.06;5032350;28;20669;-72
2023/09/30 02:49:59;;;;;;;39.80;29.88;;;;;;;20.35;75.81;101897.88;5031870;28;20378;-72
2023/09/30 02:52:25;;;;;;;38.73;28.07;;;;;;;20.36;75.52;101898.72;5032920;28;20818;-74
2023/09/30 02:54:51;;;;;;;39.67;27.67;;;;;;;20.37;75.68;101905.75;5050561;28;20397;-73
2023/09/30 02:57:17;;;;;;;36.92;26.65;;;;;;;20.36;75.34;101902.25;5033032;28;20373;-73
2023/09/30 02:59:44;;;;;;;35.10;25.05;;;;;;;20.36;75.58;101904.91;5032701;28;20920;-73
2023/09/30 03:02:12;;;;;;;37.40;25.45;;;;;;;20.33;75.44;101902.38;5032169;28;20373;-74
2023/09/30 03:04:37;;;;;;;34.67;25.73;;;;;;;20.34;75.23;101909.41;5032954;28;20730;-74
2023/09/30 03:07:03;;;;;;;35.53;25.27;;;;;;;20.33;75.50;101907.69;5033051;28;20991;-72
2023/09/30 03:09:28;;;;;;;34.30;24.13;;;;;;;20.32;75.42;101911.28;5033697;28;20451;-73
2023/09/30 03:11:57;;;;;;;31.83;22.83;;;;;;;20.34;75.45;101905.88;5032868;28;20374;-72
2023/09/30 03:14:30;;;;;;;30.63;21.98;;;;;;;20.34;75.12;101920.03;5032845;28;20392;-73
2023/09/30 03:17:01;;;;;;;31.30;21.52;;;;;;;20.32;75.21;101916.59;5036147;28;20373;-73
2023/09/30 03:19:26;;;;;;;31.38;21.33;;;;;;;20.32;75.10;101921.91;5048208;28;20484;-72
2023/09/30 03:21:54;;;;;;;28.60;20.48;;;;;;;20.33;75.04;101912.13;5048276;28;20443;-73
2023/09/30 03:24:21;;;;;;;28.30;20.40;;;;;;;20.33;75.10;101930.72;5048199;28;20870;-72
2023/09/30 03:26:51;;;;;;;27.50;19.83;;;;;;;20.34;74.95;101927.13;5049166;28;20489;-72
2023/09/30 03:29:17;;;;;;;28.50;19.65;;;;;;;20.32;75.00;101932.53;5032944;28;20472;-72
2023/09/30 03:31:42;;;;;;;27.58;18.60;;;;;;;20.32;75.13;101929.88;5032544;28;20393;-72
2023/09/30 03:34:11;;;;;;;28.50;19.00;;;;;;;20.31;75.01;101933.41;5032546;28;20377;-73
2023/09/30 03:36:40;;;;;;;26.65;17.58;;;;;;;20.32;74.73;101932.53;5032481;28;20860;-72
2023/09/30 03:39:08;;;;;;;27.70;18.75;;;;;;;20.32;74.90;101932.53;5032337;28;20381;-73
2023/09/30 03:41:36;;;;;;;25.63;17.83;;;;;;;20.32;74.96;101932.53;5032564;28;20503;-72
2023/09/30 03:44:02;;;;;;;26.20;17.80;;;;;;;20.33;74.87;101920.09;5017860;28;20758;-72
2023/09/30 03:46:27;;;;;;;24.63;17.20;;;;;;;20.34;74.97;101935.97;5035997;28;20407;-72
2023/09/30 03:48:55;;;;;;;21.93;16.57;;;;;;;20.35;75.15;101939.50;5035973;28;20389;-72
2023/09/30 03:51:23;;;;;;;24.58;17.52;;;;;;;20.35;75.35;101936.84;5035921;28;20370;-72
2023/09/30 03:53:49;;;;;;;23.17;15.70;;;;;;;20.37;75.29;101945.59;5035945;28;20807;-71
2023/09/30 03:56:14;;;;;;;23.52;15.70;;;;;;;20.37;75.12;101941.19;5036067;28;20369;-72
2023/09/30 03:58:44;;;;;;;20.87;14.47;;;;;;;20.38;75.13;101948.22;5035898;28;20450;-72
2023/09/30 04:01:16;;;;;;;22.38;15.20;;;;;;;20.40;75.17;101946.38;5035933;28;20385;-72
2023/09/30 04:03:44;;;;;;;21.67;14.30;;;;;;;20.39;75.03;101949.06;5034939;28;20392;-72
2023/09/30 04:06:14;;;;;;;22.80;15.27;;;;;;;20.40;75.03;101950.84;5035606;28;20377;-71
2023/09/30 04:08:43;;;;;;;20.05;13.45;;;;;;;20.41;74.84;101952.56;5035701;28;20398;-72
2023/09/30 04:11:17;;;;;;;22.65;13.77;;;;;;;20.42;74.84;101947.19;5035643;28;20404;-72
2023/09/30 04:13:48;;;;;;;20.48;13.52;;;;;;;20.43;74.91;101948.91;5035788;28;20451;-72
2023/09/30 04:16:15;;;;;;;19.58;13.35;;;;;;;20.40;74.61;101956.16;5038309;28;20407;-72
2023/09/30 04:18:41;;;;;;;18.10;12.90;;;;;;;20.39;74.80;101960.59;5036601;28;20382;-70
2023/09/30 04:21:08;;;;;;;19.50;12.23;;;;;;;20.40;74.89;101962.31;5035491;28;20408;-71
2023/09/30 04:23:36;;;;;;;16.35;11.23;;;;;;;20.42;74.47;101968.44;5039718;28;20392;-72
2023/09/30 04:26:02;;;;;;;18.17;11.43;;;;;;;20.41;74.63;101974.66;5043787;28;20373;-72
2023/09/30 04:28:28;;;;;;;19.02;11.70;;;;;;;20.42;74.44;101971.09;5041240;28;20456;-72
2023/09/30 04:30:54;;;;;;;16.63;10.55;;;;;;;20.44;74.27;101979.91;5045428;28;20378;-72
2023/09/30 04:33:20;;;;;;;17.75;11.73;;;;;;;20.44;74.21;101974.59;5043294;28;20870;-72
2023/09/30 04:35:45;;;;;;;19.10;10.77;;;;;;;20.47;74.26;101972.75;5043071;28;20393;-71
2023/09/30 04:38:11;;;;;;;16.17;10.80;;;;;;;20.44;74.17;101971.94;5035088;28;20907;-72
2023/09/30 04:40:39;;;;;;;15.33;9.80;;;;;;;20.44;74.12;101977.25;5034116;28;20420;-71
2023/09/30 04:43:05;;;;;;;16.08;9.80;;;;;;;20.42;73.80;101976.41;5034952;28;20397;-71
2023/09/30 04:45:30;;;;;;;16.83;10.07;;;;;;;20.41;73.96;101974.66;5034817;28;20388;-72
2023/09/30 04:47:56;;;;;;;14.93;10.10;;;;;;;20.41;73.88;101976.47;5034859;28;20377;-73
2023/09/30 04:50:21;;;;;;;14.35;8.82;;;;;;;20.41;74.09;101969.34;5034816;28;20735;-73
2023/09/30 04:52:47;;;;;;;16.40;9.43;;;;;;;20.40;73.69;101957.00;5033888;28;20837;-72
2023/09/30 04:55:15;;;;;;;13.90;9.10;;;;;;;20.42;73.77;101960.47;5034619;28;20799;-72
2023/09/30 04:57:44;;;;;;;13.53;8.53;;;;;;;20.42;73.75;101970.25;5033569;28;20948;-72
2023/09/30 05:00:12;;;;;;;13.65;8.02;;;;;;;20.41;73.66;101964.03;5034541;28;20407;-73
2023/09/30 05:02:40;;;;;;;14.68;8.25;;;;;;;20.44;73.59;101968.41;5034295;28;20435;-73
2023/09/30 05:05:06;;;;;;;11.57;7.53;;;;;;;20.42;73.63;101987.03;5034703;28;20373;-73
2023/09/30 05:07:32;;;;;;;13.85;8.10;;;;;;;20.41;73.58;101984.44;5034566;28;20712;-72
2023/09/30 05:10:07;;;;;;;13.07;7.90;;;;;;;20.43;73.57;101993.22;5033777;28;20377;-73
2023/09/30 05:12:35;;;;;;;12.93;7.90;;;;;;;20.42;73.57;101992.34;5033639;28;20392;-73
2023/09/30 05:15:01;;;;;;;13.27;7.65;;;;;;;20.42;73.43;101997.66;5034694;28;20389;-73
2023/09/30 05:17:32;;;;;;;11.88;7.00;;;;;;;20.42;73.61;102002.97;5033514;28;20716;-72
2023/09/30 05:19:57;;;;;;;13.13;7.47;;;;;;;20.42;73.37;101999.47;5034214;28;20393;-72
2023/09/30 05:22:24;;;;;;;11.23;6.97;;;;;;;20.43;73.52;101999.38;5034248;28;20381;-73
2023/09/30 05:24:56;;;;;;;12.25;7.20;;;;;;;20.42;73.43;101997.66;5033177;28;20430;-73
2023/09/30 05:27:26;;;;;;;11.65;7.13;;;;;;;20.41;73.65;102001.22;5034629;28;20831;-72
2023/09/30 05:29:55;;;;;;;12.32;7.05;;;;;;;20.40;73.62;102004.81;5034022;28;20421;-70
2023/09/30 05:32:20;;;;;;;13.15;7.53;;;;;;;20.40;73.52;102011.94;5034306;28;20715;-73
2023/09/30 05:34:52;;;;;;;10.07;6.53;;;;;;;20.40;73.44;102015.44;5033944;28;20437;-72
2023/09/30 05:37:21;;;;;;;9.63;6.45;;;;;;;20.40;73.61;102019.91;5034571;28;20373;-73
2023/09/30 05:39:50;;;;;;;10.13;6.33;;;;;;;20.39;73.60;102028.78;5032932;28;20393;-72
2023/09/30 05:42:18;;;;;;;11.93;6.65;;;;;;;20.39;73.67;102032.31;5032837;28;20377;-73
2023/09/30 05:44:45;;;;;;;11.73;6.38;;;;;;;20.39;73.28;102029.66;5033080;28;20373;-72
2023/09/30 05:47:16;;;;;;;11.98;6.35;;;;;;;20.40;73.42;102030.53;5033687;28;20806;-72
2023/09/30 05:49:46;;;;;;;10.82;5.90;;;;;;;20.39;73.40;102024.34;5033708;28;20385;-72
2023/09/30 05:52:12;;;;;;;12.43;6.53;;;;;;;20.39;73.55;102034.97;5033580;28;20384;-73
2023/09/30 05:54:42;;;;;;;10.50;5.85;;;;;;;20.38;73.10;102033.22;5033919;28;20369;-71
2023/09/30 05:57:08;;;;;;;10.93;5.82;;;;;;;20.39;73.07;102050.91;5032524;28;20726;-72
2023/09/30 05:59:38;;;;;;;10.38;5.68;;;;;;;20.39;73.06;102053.56;5033798;28;20412;-73
2023/09/30 06:02:09;;;;;;;11.70;6.47;;;;;;;20.38;73.36;102054.47;5033656;28;20446;-73
2023/09/30 06:04:36;;;;;;;10.63;5.60;;;;;;;20.38;73.27;102053.59;5034102;28;20382;-73
2023/09/30 06:07:04;;;;;;;11.00;6.10;;;;;;;20.38;73.29;102049.16;5032918;28;20393;-72
2023/09/30 06:09:30;;;;;;;11.77;5.70;;;;;;;20.39;73.46;102050.91;5051277;28;20381;-72
2023/09/30 06:11:55;;;;;;;8.55;5.00;;;;;;;20.39;73.29;102055.34;5033304;28;20389;-72
2023/09/30 06:14:21;;;;;;;8.97;5.30;;;;;;;20.39;72.97;102050.91;5033225;28;20710;-72
2023/09/30 06:16:47;;;;;;;10.80;5.30;;;;;;;20.38;73.00;102054.47;5033235;28;20841;-72
2023/09/30 06:19:13;;;;;;;9.40;5.00;;;;;;;20.40;73.17;102062.41;5033005;28;20480;-72
2023/09/30 06:21:39;;;;;;;9.30;5.40;;;;;;;20.39;73.22;102065.97;5033196;28;20757;-72
2023/09/30 06:24:05;;;;;;;10.30;5.05;;;;;;;20.38;73.12;102062.44;5048824;28;20373;-72
2023/09/30 06:26:30;;;;;;;9.20;5.20;;;;;;;20.38;73.41;102057.13;5032962;28;20386;-72
2023/09/30 06:28:58;;;;;;;9.13;4.77;;;;;;;20.39;73.13;102072.16;5048729;28;20858;-72
2023/09/30 06:31:27;;;;;;;9.15;4.65;;;;;;;20.39;73.17;102072.16;5033000;28;20886;-71
2023/09/30 06:33:58;;;;;;;8.60;4.35;;;;;;;20.38;72.72;102070.41;5033007;28;20476;-72
2023/09/30 06:36:23;;;;;;;9.00;5.10;;;;;;;20.39;72.97;102082.78;5032363;28;20695;-71
2023/09/30 06:38:50;;;;;;;9.60;4.60;;;;;;;20.38;72.95;102089.00;5032977;28;20369;-72
2023/09/30 06:41:21;;;;;;;9.93;4.65;;;;;;;20.39;73.00;102093.41;5032944;28;20393;-72
2023/09/30 06:43:46;;;;;;;11.07;4.57;;;;;;;20.39;72.88;102092.53;5032970;28;20396;-71
2023/09/30 06:46:12;;;;;;;9.77;4.70;;;;;;;20.37;72.82;102095.25;5032213;28;20389;-73
2023/09/30 06:48:40;;;;;;;9.77;4.88;;;;;;;20.38;72.80;102094.31;5032985;28;20377;-71
2023/09/30 06:51:08;;;;;;;10.52;4.65;;;;;;;20.38;72.88;102096.97;5032035;28;20848;-72
2023/09/30 06:53:33;;;;;;;8.50;4.60;;;;;;;20.39;73.28;102097.84;5032767;28;20391;-72
2023/09/30 06:56:08;;;;;;;8.90;4.43;;;;;;;20.38;72.88;102102.28;5048451;28;20384;-72
2023/09/30 06:58:38;;;;;;;9.33;4.60;;;;;;;20.38;72.66;102096.13;5031751;28;20389;-72
2023/09/30 07:01:03;;;;;;;9.85;4.35;;;;;;;20.38;72.67;102099.63;5032504;28;20484;-73
2023/09/30 07:03:33;;;;;;;8.97;4.50;;;;;;;20.39;72.87;102106.69;5032513;28;20385;-74
2023/09/30 07:06:00;;;;;;;8.87;4.40;;;;;;;20.39;72.78;102113.78;5032547;28;20381;-72
2023/09/30 07:08:33;;;;;;;7.95;4.20;;;;;;;20.39;72.70;102108.47;5031723;28;20718;-73
2023/09/30 07:11:01;;;;;;;9.02;4.40;;;;;;;20.38;72.96;102123.53;5031735;28;20443;-72
2023/09/30 07:13:27;;;;;;;11.23;4.97;;;;;;;20.43;73.26;102123.38;5032645;28;20369;-77
2023/09/30 07:15:52;;;;;;;18.13;4.37;;;;;;;20.50;73.60;102121.41;5031683;28;20393;-83
2023/09/30 07:18:18;;;;;;;15.60;4.50;;;;;;;20.46;73.53;102125.94;5039955;28;20377;-76
2023/09/30 07:20:46;;;;;;;11.30;4.30;;;;;;;20.46;73.46;102131.25;5036506;28;20451;-78
2023/09/30 07:23:14;;;;;;;12.52;4.13;;;;;;;20.45;73.13;102134.84;5036207;28;20420;-79
2023/09/30 07:25:42;;;;;;;14.73;4.20;;;;;;;20.43;73.51;102134.88;5036072;28;20822;-73
2023/09/30 07:28:13;;;;;;;13.35;4.00;;;;;;;20.41;74.02;102139.38;5040748;28;20383;-72
2023/09/30 07:30:41;;;;;;;11.80;4.00;;;;;;;20.43;73.90;102142.84;5036856;28;20550;-73
2023/09/30 07:33:06;;;;;;;12.15;3.90;;;;;;;20.47;73.77;102145.44;5034973;28;20378;-72
2023/09/30 07:35:38;;;;;;;9.97;3.87;;;;;;;20.47;73.76;102137.44;5036036;28;20851;-73
2023/09/30 07:38:09;;;;;;;10.40;3.90;;;;;;;20.45;73.98;102143.66;5035156;28;20385;-73
2023/09/30 07:40:34;;;;;;;9.80;4.13;;;;;;;20.43;73.65;102145.50;5018782;28;20398;-73
2023/09/30 07:43:04;;;;;;;11.77;3.80;;;;;;;20.43;73.21;102150.81;5035784;28;20730;-74
2023/09/30 07:45:32;;;;;;;9.60;3.67;;;;;;;20.40;73.65;102156.25;5018791;28;20381;-74
2023/09/30 07:48:03;;;;;;;12.10;3.80;;;;;;;20.44;73.59;102155.22;5034754;28;20746;-73
2023/09/30 07:50:28;;;;;;;9.02;3.63;;;;;;;20.47;73.26;102150.75;5035662;28;20369;-73
2023/09/30 07:52:53;;;;;;;10.37;3.77;;;;;;;20.46;72.84;102141.88;5035351;28;20446;-74
2023/09/30 07:55:21;;;;;;;11.57;3.85;;;;;;;20.45;73.16;102159.59;5039036;28;20448;-74
2023/09/30 07:57:49;;;;;;;9.85;3.92;;;;;;;20.47;72.86;102169.34;5037313;28;20381;-74
2023/09/30 08:00:15;;;;;;;10.10;3.78;;;;;;;20.46;72.54;102163.13;5037298;28;20393;-72
2023/09/30 08:02:41;;;;;;;10.00;3.53;;;;;;;20.44;72.54;102168.50;5035909;28;20392;-73
2023/09/30 08:05:11;;;;;;;10.73;3.55;;;;;;;20.44;72.19;102171.16;5035436;28;20381;-73
2023/09/30 08:07:39;;;;;;;8.38;3.72;;;;;;;20.44;72.81;102172.97;5034441;28;20396;-73
2023/09/30 08:10:06;;;;;;;10.07;3.78;;;;;;;20.47;72.77;102185.28;5035445;28;20423;-74
2023/09/30 08:12:32;;;;;;;8.18;3.70;;;;;;;20.44;72.38;102176.47;5017847;28;20467;-73
2023/09/30 08:14:57;;;;;;;10.55;3.75;;;;;;;20.44;72.18;102175.63;5035186;28;20722;-72
2023/09/30 08:17:25;;;;;;;8.10;3.27;;;;;;;20.44;72.38;102176.47;5034146;28;20847;-71
2023/09/30 08:19:51;;;;;;;9.80;3.47;;;;;;;20.44;72.48;102176.47;5035396;28;20404;-74
2023/09/30 08:22:27;;;;;;;9.23;3.30;;;;;;;20.46;72.23;102181.72;5035354;28;20381;-73
2023/09/30 08:24:53;;;;;;;10.77;3.85;;;;;;;20.45;72.30;102188.84;5035239;28;20460;-73
2023/09/30 08:27:19;;;;;;;9.55;3.80;;;;;;;20.41;72.33;102181.88;5034225;28;20427;-72
2023/09/30 08:29:44;;;;;;;9.03;3.30;;;;;;;20.40;72.13;102188.13;5034482;28;20382;-73
2023/09/30 08:32:12;;;;;;;8.07;3.65;;;;;;;20.42;72.34;102186.28;5035092;28;20381;-72
2023/09/30 08:34:37;;;;;;;9.98;3.45;;;;;;;20.43;72.24;102182.69;5034852;28;20377;-74
2023/09/30 08:37:05;;;;;;;8.07;3.10;;;;;;;20.41;72.32;102184.53;5034924;28;20377;-73
2023/09/30 08:39:31;;;;;;;8.02;3.60;;;;;;;20.39;72.13;102186.38;5033943;28;20374;-74
2023/09/30 08:41:58;;;;;;;9.68;3.53;;;;;;;20.39;72.04;102183.72;5034876;28;20385;-79
2023/09/30 08:44:29;;;;;;;10.57;3.60;;;;;;;20.48;72.03;102184.34;5037012;28;20392;-85
2023/09/30 08:46:55;;;;;;;17.87;4.07;;;;;;;20.55;72.02;102189.41;5038086;28;20373;-78
2023/09/30 08:49:23;;;;;;;105.20;23.90;;;;;;;20.69;71.96;102181.03;5035337;28;20499;-79
2023/09/30 08:51:49;;;;;;;272.80;66.88;;;;;;;20.61;71.79;102183.94;5034306;28;20377;-82
2023/09/30 08:54:17;;;;;;;120.93;27.40;;;;;;;20.55;70.41;102185.88;5036282;28;20858;-81
2023/09/30 08:56:43;;;;;;;88.57;20.23;;;;;;;20.56;71.14;102179.69;5035059;28;20387;-81
2023/09/30 08:59:08;;;;;;;65.45;15.88;;;;;;;20.50;69.71;102187.81;5034430;28;20382;-77
2023/09/30 09:01:34;;;;;;;54.88;12.48;;;;;;;20.44;69.52;102187.09;5034369;28;20420;-77
2023/09/30 09:03:59;;;;;;;56.00;13.77;;;;;;;20.42;70.14;102182.75;5036091;28;20528;-78
2023/09/30 09:06:28;;;;;;;57.67;10.90;;;;;;;20.40;70.38;102180.16;5041332;28;20850;-83
2023/09/30 09:08:53;;;;;;;36.33;8.45;;;;;;;20.39;68.97;102178.41;5057400;28;20779;-82
2023/09/30 09:11:21;;;;;;;36.25;7.43;;;;;;;20.39;68.53;102177.53;5055676;28;20468;-83
2023/09/30 09:13:53;;;;;;;24.85;5.30;;;;;;;20.38;68.13;102176.66;5039708;28;20827;-79
2023/09/30 09:16:21;;;;;;;21.50;4.57;;;;;;;20.35;66.71;102176.78;5042532;28;20416;-78
2023/09/30 09:18:49;;;;;;;20.58;4.95;;;;;;;20.34;66.19;102169.69;5037550;28;20386;-78
2023/09/30 09:21:20;;;;;;;21.70;4.38;;;;;;;20.33;65.10;102175.94;5049350;28;20396;-79
2023/09/30 09:23:50;;;;;;;17.10;3.90;;;;;;;20.31;64.60;102175.13;5056748;28;20948;-82
2023/09/30 09:26:18;;;;;;;16.83;3.83;;;;;;;20.30;64.29;102178.69;5057120;28;20708;-85
2023/09/30 09:28:44;;;;;;;13.38;3.35;;;;;;;20.31;64.40;102176.91;5056513;28;20384;-80
2023/09/30 09:31:24;;;;;;;12.93;3.30;;;;;;;20.29;63.17;102174.28;5061476;28;20429;-79
2023/09/30 09:33:50;;;;;;;14.93;4.20;;;;;;;20.29;63.50;102176.94;5059434;28;20382;-81
2023/09/30 09:36:19;;;;;;;12.93;4.10;;;;;;;20.28;63.68;102177.00;5040706;28;20422;-79
2023/09/30 09:38:49;;;;;;;12.93;3.73;;;;;;;20.27;63.25;102178.78;5044209;28;20486;-81
2023/09/30 09:41:15;;;;;;;15.07;4.03;;;;;;;20.26;63.17;102182.38;5068653;28;20395;-76
2023/09/30 09:43:48;;;;;;;11.37;3.87;;;;;;;20.26;63.02;102187.69;5072193;28;20713;-78
2023/09/30 09:46:16;;;;;;;18.88;4.40;;;;;;;20.33;64.37;102183.91;5074527;28;20368;-78
2023/09/30 09:48:42;;;;;;;24.50;4.70;;;;;;;20.39;62.75;102177.53;5073737;28;20389;-80
2023/09/30 09:51:08;;;;;;;22.60;4.22;;;;;;;20.45;63.86;102172.88;5043032;28;20368;-77
2023/09/30 09:53:37;;;;;;;31.98;5.88;;;;;;;20.37;63.80;102180.25;5054103;28;20430;-78
2023/09/30 09:56:03;;;;;;;32.40;5.50;;;;;;;20.33;63.46;102173.28;5053087;28;20419;-79
2023/09/30 09:58:31;;;;;;;41.40;5.27;;;;;;;20.39;64.80;102185.50;5052426;28;20437;-80
2023/09/30 10:01:03;;;;;;;32.47;4.77;;;;;;;20.37;65.48;102176.69;5052753;28;20773;-75
2023/09/30 10:03:28;;;;;;;30.60;4.53;;;;;;;20.33;65.97;102172.41;5052431;28;20363;-74
2023/09/30 10:05:54;;;;;;;30.67;4.87;;;;;;;20.31;66.42;102175.13;5053247;28;20826;-74
2023/09/30 10:08:23;;;;;;;24.37;4.27;;;;;;;20.32;66.95;102171.56;5053160;28;20463;-74
2023/09/30 10:10:48;;;;;;;24.55;5.13;;;;;;;20.31;67.14;102175.13;5036256;28;20715;-74
2023/09/30 10:13:51;;;;;;;24.20;3.92;;;;;;;20.32;67.43;102175.97;5035669;28;20371;-74
2023/09/30 10:16:41;;;;;;;21.00;4.38;;;;;;;20.30;68.15;102168.09;5053239;28;20351;-74
2023/09/30 10:19:14;;;;;;;33.92;5.53;;;;;;;20.30;68.13;102170.75;5052179;28;20380;-75
2023/09/30 10:22:05;;;;;;;21.90;4.43;;;;;;;20.30;68.22;102168.09;5051993;28;20396;-74
2023/09/30 10:24:31;;;;;;;21.33;4.78;;;;;;;20.29;68.79;102166.31;5050357;28;20387;-75
2023/09/30 10:27:23;;;;;;;20.60;3.97;;;;;;;20.32;69.27;102176.88;5052867;28;20390;-74
2023/09/30 10:30:13;;;;;;;17.48;4.40;;;;;;;20.31;69.08;102169.81;5052972;28;20817;-75
2023/09/30 10:32:53;;;;;;;20.70;4.30;;;;;;;20.31;69.44;102171.59;5052283;28;20844;-75
2023/09/30 10:35:27;;;;;;;18.73;4.07;;;;;;;20.31;69.32;102168.94;5053258;28;20375;-74
2023/09/30 10:38:13;;;;;;;20.70;4.10;;;;;;;20.30;69.44;102177.81;5053028;28;20894;-75
2023/09/30 10:40:43;;;;;;;14.40;3.50;;;;;;;20.30;69.61;102184.03;5052535;28;20841;-74
2023/09/30 10:43:30;;;;;;;14.85;3.78;;;;;;;20.29;69.52;102176.09;5052383;28;20376;-75
2023/09/30 10:45:56;;;;;;;10.88;3.47;;;;;;;20.29;69.61;102176.94;5052287;28;20441;-75
2023/09/30 10:48:27;;;;;;;11.65;3.95;;;;;;;20.29;69.44;102184.91;5051997;28;20384;-74
2023/09/30 10:50:56;;;;;;;15.65;3.50;;;;;;;20.28;69.81;102191.16;5052891;28;20377;-74
2023/09/30 10:53:22;;;;;;;11.60;3.53;;;;;;;20.28;69.69;102191.16;5056463;28;20383;-75
2023/09/30 10:55:57;;;;;;;16.13;3.97;;;;;;;20.29;69.84;102184.91;5055954;28;20429;-75
2023/09/30 10:58:40;;;;;;;12.60;3.38;;;;;;;20.28;69.90;102188.50;5056802;28;20383;-75
2023/09/30 11:01:05;;;;;;;10.07;3.20;;;;;;;20.27;69.79;102184.09;5055805;28;20395;-75
2023/09/30 11:03:31;;;;;;;10.65;3.50;;;;;;;20.29;70.51;102184.91;5056784;28;20836;-74
2023/09/30 11:05:59;;;;;;;14.67;3.40;;;;;;;20.28;70.05;102180.53;5056593;28;20375;-74
2023/09/30 11:08:24;;;;;;;11.95;3.05;;;;;;;20.28;70.55;102182.31;5055737;28;20391;-76
2023/09/30 11:10:50;;;;;;;10.05;3.40;;;;;;;20.27;70.02;102184.09;5055655;28;20383;-75
2023/09/30 11:13:19;;;;;;;9.68;3.13;;;;;;;20.27;70.37;102180.56;5039282;28;20388;-75
2023/09/30 11:15:47;;;;;;;9.10;2.90;;;;;;;20.27;70.97;102177.91;5056594;28;20375;-74